createdAt,value
2022-11-30T00:00:52.036Z,6.68
2022-11-30T00:01:54.927Z,6.67
2022-11-30T00:02:57.860Z,6.62
2022-11-30T00:03:59.736Z,6.41
2022-11-30T00:05:03.126Z,6.42
2022-11-30T00:06:23.751Z,6.47
2022-11-30T00:07:25.486Z,6.63
2022-11-30T00:08:29.638Z,6.44
2022-11-30T00:09:32.328Z,6.58
2022-11-30T00:10:34.180Z,6.42
2022-11-30T00:11:37.148Z,6.54
2022-11-30T00:12:44.330Z,6.62
2022-11-30T00:13:50.338Z,6.61
2022-11-30T00:14:53.683Z,6.59
2022-11-30T00:16:04.165Z,6.58
2022-11-30T00:17:07.292Z,6.57
2022-11-30T00:18:09.924Z,6.52
2022-11-30T00:19:12.241Z,6.43
2022-11-30T00:20:15.164Z,6.29
2022-11-30T00:21:16.992Z,6.48
2022-11-30T00:22:19.293Z,6.48
2022-11-30T00:23:21.081Z,6.49
2022-11-30T00:24:23.943Z,6.48
2022-11-30T00:25:29.152Z,6.53
2022-11-30T00:26:32.215Z,6.41
2022-11-30T00:27:36.457Z,6.49
2022-11-30T00:28:39.795Z,6.29
2022-11-30T00:29:41.687Z,6.49
2022-11-30T00:30:46.981Z,6.52
2022-11-30T00:31:49.119Z,6.49
2022-11-30T00:32:51.305Z,6.46
2022-11-30T00:33:52.984Z,6.21
2022-11-30T00:34:55.692Z,6.37
2022-11-30T00:35:59.001Z,6.19
2022-11-30T00:37:01.154Z,6.41
2022-11-30T00:38:04.394Z,6.37
2022-11-30T00:39:07.597Z,6.35
2022-11-30T00:40:10.675Z,6.38
2022-11-30T00:41:13.241Z,6.38
2022-11-30T00:42:20.037Z,6.37
2022-11-30T00:43:21.720Z,6.33
2022-11-30T00:44:23.875Z,6.25
2022-11-30T00:45:27.168Z,6.20
2022-11-30T00:46:29.594Z,6.35
2022-11-30T00:47:31.303Z,6.30
2022-11-30T00:48:34.321Z,6.28
2022-11-30T00:49:37.829Z,6.25
2022-11-30T00:50:39.762Z,6.28
2022-11-30T00:51:45.550Z,6.24
2022-11-30T00:52:47.238Z,6.25
2022-11-30T00:53:50.639Z,6.29
2022-11-30T00:54:55.580Z,6.26
2022-11-30T00:55:58.254Z,6.28
2022-11-30T00:57:00.506Z,6.29
2022-11-30T00:58:04.033Z,6.10
2022-11-30T00:59:08.721Z,6.25
2022-11-30T01:00:14.551Z,6.33
2022-11-30T01:01:18.005Z,6.34
2022-11-30T01:02:21.541Z,6.24
2022-11-30T01:03:23.805Z,6.34
2022-11-30T01:04:26.095Z,6.31
2022-11-30T01:05:31.630Z,6.36
2022-11-30T01:06:33.680Z,6.30
2022-11-30T01:07:36.311Z,6.28
2022-11-30T01:08:39.469Z,6.22
2022-11-30T01:09:41.662Z,6.32
2022-11-30T01:10:46.445Z,6.36
2022-11-30T01:11:48.259Z,6.33
2022-11-30T01:12:50.634Z,6.11
2022-11-30T01:13:54.153Z,6.38
2022-11-30T01:14:57.148Z,6.38
2022-11-30T01:16:00.273Z,6.39
2022-11-30T01:17:03.959Z,6.31
2022-11-30T01:18:07.184Z,6.38
2022-11-30T01:19:08.881Z,6.33
2022-11-30T01:20:11.881Z,6.33
2022-11-30T01:21:21.913Z,6.41
2022-11-30T01:22:26.544Z,6.42
2022-11-30T01:23:30.041Z,6.38
2022-11-30T01:24:31.924Z,6.39
2022-11-30T01:25:34.280Z,6.40
2022-11-30T01:26:37.887Z,6.44
2022-11-30T01:27:39.674Z,6.45
2022-11-30T01:28:46.754Z,6.45
2022-11-30T01:29:48.942Z,6.43
2022-11-30T01:30:59.277Z,6.44
2022-11-30T01:32:01.940Z,6.46
2022-11-30T01:33:05.035Z,6.33
2022-11-30T01:34:09.393Z,6.44
2022-11-30T01:35:12.497Z,6.40
2022-11-30T01:36:20.141Z,6.25
2022-11-30T01:37:22.276Z,6.21
2022-11-30T01:38:24.466Z,6.29
2022-11-30T01:39:26.724Z,6.33
2022-11-30T01:40:29.004Z,6.23
2022-11-30T01:41:32.435Z,6.22
2022-11-30T01:42:34.971Z,6.34
2022-11-30T01:43:45.853Z,6.29
2022-11-30T01:44:52.649Z,6.36
2022-11-30T01:45:57.680Z,6.38
2022-11-30T01:47:07.813Z,6.41
2022-11-30T01:48:09.549Z,6.37
2022-11-30T01:49:22.081Z,6.41
2022-11-30T01:50:35.961Z,6.41
2022-11-30T01:51:52.045Z,6.38
2022-11-30T01:52:59.270Z,6.44
2022-11-30T01:54:02.681Z,6.40
2022-11-30T01:55:15.996Z,6.47
2022-11-30T01:56:19.001Z,6.40
2022-11-30T01:57:29.213Z,6.41
2022-11-30T01:58:31.225Z,6.40
2022-11-30T01:59:32.808Z,6.37
2022-11-30T02:00:36.029Z,6.40
2022-11-30T02:01:38.780Z,6.45
2022-11-30T02:02:42.203Z,6.44
2022-11-30T02:04:10.063Z,6.35
2022-11-30T02:05:13.671Z,6.46
2022-11-30T02:06:15.814Z,6.47
2022-11-30T02:07:17.878Z,6.41
2022-11-30T02:08:20.749Z,6.49
2022-11-30T02:09:23.959Z,6.46
2022-11-30T02:10:30.537Z,6.49
2022-11-30T02:11:32.724Z,6.42
2022-11-30T02:13:00.336Z,6.49
2022-11-30T02:14:27.117Z,6.49
2022-11-30T02:15:38.010Z,6.50
2022-11-30T02:17:04.613Z,6.49
2022-11-30T02:18:31.327Z,6.49
2022-11-30T02:20:07.870Z,6.49
2022-11-30T02:21:38.748Z,6.48
2022-11-30T02:23:23.137Z,6.49
2022-11-30T02:24:51.690Z,6.50
2022-11-30T02:26:14.231Z,6.50
2022-11-30T02:27:58.576Z,6.52
2022-11-30T02:29:27.869Z,6.54
2022-11-30T02:30:34.594Z,6.50
2022-11-30T02:31:59.893Z,6.56
2022-11-30T02:33:11.415Z,6.55
2022-11-30T02:34:17.633Z,6.49
2022-11-30T02:35:22.878Z,6.33
2022-11-30T02:36:27.337Z,6.49
2022-11-30T02:37:32.800Z,6.58
2022-11-30T02:38:34.818Z,6.49
2022-11-30T02:39:36.883Z,6.59
2022-11-30T02:40:40.329Z,6.52
2022-11-30T02:41:42.218Z,6.44
2022-11-30T02:42:44.949Z,6.35
2022-11-30T02:43:46.891Z,6.50
2022-11-30T02:44:52.377Z,6.56
2022-11-30T02:46:14.571Z,6.57
2022-11-30T02:47:34.522Z,6.64
2022-11-30T02:48:46.762Z,6.51
2022-11-30T02:50:02.087Z,6.69
2022-11-30T02:51:08.578Z,6.63
2022-11-30T02:52:13.940Z,6.65
2022-11-30T02:53:16.683Z,6.65
2022-11-30T02:54:19.340Z,6.61
2022-11-30T02:55:22.503Z,6.65
2022-11-30T02:56:26.118Z,6.49
2022-11-30T02:57:27.870Z,6.69
2022-11-30T02:58:29.832Z,6.74
2022-11-30T02:59:33.764Z,6.76
2022-11-30T03:00:37.226Z,6.72
2022-11-30T03:01:40.008Z,6.79
2022-11-30T03:02:42.111Z,6.77
2022-11-30T03:03:44.981Z,6.76
2022-11-30T03:04:46.754Z,6.76
2022-11-30T03:05:49.014Z,6.77
2022-11-30T03:06:51.142Z,6.76
2022-11-30T03:07:54.715Z,6.67
2022-11-30T03:08:56.431Z,6.74
2022-11-30T03:09:58.385Z,6.66
2022-11-30T03:11:05.817Z,6.74
2022-11-30T03:12:07.832Z,6.73
2022-11-30T03:13:10.048Z,6.73
2022-11-30T03:14:12.549Z,6.68
2022-11-30T03:15:17.745Z,6.73
2022-11-30T03:16:19.869Z,6.66
2022-11-30T03:17:21.987Z,6.66
2022-11-30T03:18:26.962Z,6.74
2022-11-30T03:19:30.286Z,6.59
2022-11-30T03:20:33.829Z,6.66
2022-11-30T03:21:36.825Z,6.68
2022-11-30T03:22:38.856Z,6.74
2022-11-30T03:23:41.274Z,6.70
2022-11-30T03:24:43.172Z,6.75
2022-11-30T03:25:46.717Z,6.68
2022-11-30T03:26:50.198Z,6.74
2022-11-30T03:27:54.136Z,6.75
2022-11-30T03:28:56.136Z,6.79
2022-11-30T03:30:00.093Z,6.80
2022-11-30T03:31:02.411Z,6.81
2022-11-30T03:32:05.341Z,6.81
2022-11-30T03:33:06.977Z,6.78
2022-11-30T03:34:09.309Z,6.77
2022-11-30T03:35:11.857Z,6.74
2022-11-30T03:36:13.690Z,6.82
2022-11-30T03:37:16.358Z,6.79
2022-11-30T03:38:18.820Z,6.75
2022-11-30T03:39:24.521Z,6.86
2022-11-30T03:40:27.173Z,6.77
2022-11-30T03:41:29.464Z,6.53
2022-11-30T03:42:31.391Z,6.68
2022-11-30T03:43:37.318Z,6.80
2022-11-30T03:44:39.868Z,6.78
2022-11-30T03:45:45.795Z,6.76
2022-11-30T03:46:48.134Z,6.77
2022-11-30T03:47:52.183Z,6.69
2022-11-30T03:48:55.538Z,6.81
2022-11-30T03:49:57.495Z,6.78
2022-11-30T03:51:00.072Z,6.82
2022-11-30T03:52:03.317Z,6.77
2022-11-30T03:53:05.346Z,6.71
2022-11-30T03:54:07.258Z,6.78
2022-11-30T03:55:09.595Z,6.80
2022-11-30T03:56:15.779Z,6.82
2022-11-30T03:57:18.153Z,6.80
2022-11-30T03:58:32.193Z,6.81
2022-11-30T03:59:34.352Z,6.69
2022-11-30T04:00:37.142Z,6.81
2022-11-30T04:01:41.578Z,6.82
2022-11-30T04:02:45.048Z,6.77
2022-11-30T04:03:47.215Z,6.85
2022-11-30T04:04:49.415Z,6.81
2022-11-30T04:05:52.231Z,6.81
2022-11-30T04:06:57.486Z,6.66
2022-11-30T04:08:03.628Z,6.89
2022-11-30T04:09:06.869Z,6.88
2022-11-30T04:10:09.660Z,6.89
2022-11-30T04:11:13.751Z,6.82
2022-11-30T04:12:15.788Z,6.91
2022-11-30T04:13:18.032Z,6.88
2022-11-30T04:14:20.191Z,6.77
2022-11-30T04:15:22.908Z,6.92
2022-11-30T04:16:28.629Z,6.92
2022-11-30T04:17:31.013Z,6.88
2022-11-30T04:18:34.941Z,6.84
2022-11-30T04:19:37.050Z,6.89
2022-11-30T04:20:40.574Z,6.94
2022-11-30T04:21:42.846Z,6.90
2022-11-30T04:22:44.454Z,6.91
2022-11-30T04:23:46.457Z,6.98
2022-11-30T04:24:48.923Z,6.88
2022-11-30T04:25:52.209Z,6.86
2022-11-30T04:26:54.030Z,6.95
2022-11-30T04:27:56.951Z,6.92
2022-11-30T04:29:04.152Z,6.96
2022-11-30T04:30:08.513Z,6.96
2022-11-30T04:31:11.199Z,6.94
2022-11-30T04:32:13.071Z,6.93
2022-11-30T04:33:17.302Z,6.91
2022-11-30T04:34:21.878Z,6.97
2022-11-30T04:35:24.564Z,6.95
2022-11-30T04:36:28.722Z,6.89
2022-11-30T04:37:30.968Z,6.98
2022-11-30T04:38:33.646Z,6.94
2022-11-30T04:39:35.712Z,6.74
2022-11-30T04:40:42.006Z,6.94
2022-11-30T04:41:43.967Z,6.98
2022-11-30T04:42:45.894Z,6.89
2022-11-30T04:43:48.839Z,6.53
2022-11-30T04:44:57.761Z,6.92
2022-11-30T04:45:59.741Z,6.93
2022-11-30T04:47:01.400Z,6.91
2022-11-30T04:48:04.205Z,6.93
2022-11-30T04:49:07.438Z,7.01
2022-11-30T04:50:09.758Z,6.95
2022-11-30T04:51:11.500Z,6.98
2022-11-30T04:52:13.201Z,6.96
2022-11-30T04:53:16.229Z,6.94
2022-11-30T04:54:18.641Z,6.93
2022-11-30T04:55:24.756Z,6.96
2022-11-30T04:56:27.368Z,7.02
2022-11-30T04:57:33.609Z,7.02
2022-11-30T04:58:40.354Z,6.97
2022-11-30T04:59:42.566Z,6.92
2022-11-30T05:00:45.567Z,6.90
2022-11-30T05:01:47.320Z,6.95
2022-11-30T05:02:53.430Z,6.95
2022-11-30T05:04:00.309Z,6.94
2022-11-30T05:05:03.262Z,6.97
2022-11-30T05:06:05.637Z,6.94
2022-11-30T05:07:08.045Z,6.84
2022-11-30T05:08:10.855Z,6.97
2022-11-30T05:09:14.536Z,6.98
2022-11-30T05:10:19.105Z,6.84
2022-11-30T05:11:22.856Z,6.97
2022-11-30T05:12:27.062Z,6.96
2022-11-30T05:13:32.078Z,6.93
2022-11-30T05:14:34.836Z,6.79
2022-11-30T05:15:37.592Z,6.98
2022-11-30T05:16:41.775Z,6.94
2022-11-30T05:17:43.802Z,6.99
2022-11-30T05:18:48.055Z,6.94
2022-11-30T05:19:50.160Z,6.85
2022-11-30T05:20:53.824Z,6.98
2022-11-30T05:21:55.984Z,6.90
2022-11-30T05:22:59.766Z,6.95
2022-11-30T05:24:01.809Z,6.91
2022-11-30T05:25:07.104Z,6.91
2022-11-30T05:26:09.355Z,6.94
2022-11-30T05:27:16.581Z,7.01
2022-11-30T05:28:22.693Z,6.97
2022-11-30T05:29:26.256Z,7.00
2022-11-30T05:30:29.520Z,6.71
2022-11-30T05:31:32.122Z,7.00
2022-11-30T05:32:34.273Z,6.96
2022-11-30T05:33:36.876Z,6.92
2022-11-30T05:34:50.505Z,6.73
2022-11-30T05:35:53.780Z,6.93
2022-11-30T05:36:55.908Z,6.80
2022-11-30T05:37:58.226Z,6.64
2022-11-30T05:38:59.845Z,6.85
2022-11-30T05:40:02.396Z,6.73
2022-11-30T05:41:06.974Z,6.87
2022-11-30T05:42:09.558Z,6.88
2022-11-30T05:43:13.460Z,6.88
2022-11-30T05:44:15.954Z,6.87
2022-11-30T05:45:20.721Z,6.89
2022-11-30T05:46:22.733Z,6.85
2022-11-30T05:47:24.446Z,6.75
2022-11-30T05:48:29.484Z,6.85
2022-11-30T05:49:32.314Z,6.89
2022-11-30T05:50:34.160Z,6.91
2022-11-30T05:51:36.393Z,6.88
2022-11-30T05:52:40.119Z,6.86
2022-11-30T05:53:45.556Z,6.85
2022-11-30T05:54:48.188Z,6.67
2022-11-30T05:55:51.705Z,6.83
2022-11-30T05:56:55.224Z,6.92
2022-11-30T05:57:57.862Z,6.88
2022-11-30T05:59:00.042Z,6.92
2022-11-30T06:00:03.019Z,6.89
2022-11-30T06:01:10.993Z,6.91
2022-11-30T06:02:16.749Z,6.88
2022-11-30T06:03:19.343Z,6.85
2022-11-30T06:04:22.400Z,6.86
2022-11-30T06:05:27.292Z,6.89
2022-11-30T06:06:30.556Z,6.72
2022-11-30T06:07:33.545Z,6.83
2022-11-30T06:08:35.387Z,6.82
2022-11-30T06:09:37.365Z,6.82
2022-11-30T06:10:39.112Z,6.77
2022-11-30T06:11:42.250Z,6.84
2022-11-30T06:12:46.121Z,6.79
2022-11-30T06:13:49.223Z,6.55
2022-11-30T06:14:51.521Z,6.64
2022-11-30T06:15:53.199Z,6.88
2022-11-30T06:16:55.442Z,6.88
2022-11-30T06:17:59.382Z,6.90
2022-11-30T06:19:02.203Z,6.84
2022-11-30T06:20:09.024Z,6.68
2022-11-30T06:21:12.120Z,6.88
2022-11-30T06:22:14.214Z,6.86
2022-11-30T06:23:16.163Z,6.80
2022-11-30T06:24:18.520Z,6.91
2022-11-30T06:25:21.135Z,6.92
2022-11-30T06:26:25.337Z,6.93
2022-11-30T06:27:32.496Z,6.95
2022-11-30T06:28:36.447Z,6.92
2022-11-30T06:29:39.035Z,6.92
2022-11-30T06:30:48.982Z,6.94
2022-11-30T06:31:54.057Z,6.93
2022-11-30T06:32:56.946Z,6.91
2022-11-30T06:33:59.864Z,6.91
2022-11-30T06:35:04.770Z,6.89
2022-11-30T06:36:06.875Z,6.84
2022-11-30T06:37:09.115Z,6.88
2022-11-30T06:38:13.679Z,6.81
2022-11-30T06:39:16.498Z,6.87
2022-11-30T06:40:18.637Z,6.88
2022-11-30T06:41:23.956Z,6.83
2022-11-30T06:42:25.812Z,6.85
2022-11-30T06:43:28.979Z,6.84
2022-11-30T06:44:30.975Z,6.79
2022-11-30T06:45:33.049Z,6.80
2022-11-30T06:46:35.740Z,6.65
2022-11-30T06:47:39.729Z,6.72
2022-11-30T06:48:43.750Z,6.77
2022-11-30T06:49:45.854Z,6.70
2022-11-30T06:50:50.184Z,6.64
2022-11-30T06:51:52.775Z,6.75
2022-11-30T06:52:59.581Z,6.74
2022-11-30T06:54:02.554Z,6.63
2022-11-30T06:55:06.902Z,6.74
2022-11-30T06:56:11.040Z,6.59
2022-11-30T06:57:12.876Z,6.65
2022-11-30T06:58:14.578Z,6.70
2022-11-30T06:59:16.672Z,6.69
2022-11-30T07:00:19.282Z,6.62
2022-11-30T07:01:22.709Z,6.58
2022-11-30T07:02:24.778Z,6.55
2022-11-30T07:03:26.612Z,6.62
2022-11-30T07:04:29.165Z,6.65
2022-11-30T07:05:35.643Z,6.70
2022-11-30T07:06:40.918Z,6.68
2022-11-30T07:07:43.124Z,6.66
2022-11-30T07:08:46.507Z,6.59
2022-11-30T07:09:52.632Z,6.62
2022-11-30T07:10:55.252Z,6.63
2022-11-30T07:12:00.697Z,6.49
2022-11-30T07:13:05.166Z,6.52
2022-11-30T07:14:08.226Z,6.67
2022-11-30T07:15:10.526Z,6.59
2022-11-30T07:16:18.667Z,6.68
2022-11-30T07:17:20.625Z,6.68
2022-11-30T07:18:25.895Z,6.59
2022-11-30T07:19:35.045Z,6.70
2022-11-30T07:20:39.585Z,6.73
2022-11-30T07:21:41.484Z,6.67
2022-11-30T07:22:44.856Z,6.64
2022-11-30T07:24:06.661Z,6.73
2022-11-30T07:25:31.120Z,6.74
2022-11-30T07:26:34.127Z,6.77
2022-11-30T07:27:37.719Z,6.76
2022-11-30T07:28:46.319Z,6.71
2022-11-30T07:29:49.681Z,6.74
2022-11-30T07:30:51.628Z,6.71
2022-11-30T07:31:56.109Z,6.69
2022-11-30T07:32:58.546Z,6.66
2022-11-30T07:34:06.947Z,6.76
2022-11-30T07:35:11.256Z,6.74
2022-11-30T07:36:18.769Z,6.58
2022-11-30T07:37:23.223Z,6.73
2022-11-30T07:38:24.984Z,6.74
2022-11-30T07:39:27.895Z,6.74
2022-11-30T07:40:31.842Z,6.70
2022-11-30T07:41:34.367Z,6.74
2022-11-30T07:42:37.145Z,6.61
2022-11-30T07:43:41.352Z,6.77
2022-11-30T07:44:47.208Z,6.76
2022-11-30T07:45:53.487Z,6.77
2022-11-30T07:46:56.712Z,6.75
2022-11-30T07:48:01.815Z,6.78
2022-11-30T07:49:04.320Z,6.71
2022-11-30T07:50:08.190Z,6.79
2022-11-30T07:51:21.831Z,6.85
2022-11-30T07:52:24.162Z,6.88
2022-11-30T07:53:26.310Z,6.86
2022-11-30T07:54:31.055Z,6.92
2022-11-30T07:55:33.671Z,6.90
2022-11-30T07:56:35.415Z,6.91
2022-11-30T07:57:38.488Z,6.89
2022-11-30T07:58:41.837Z,6.85
2022-11-30T07:59:44.949Z,6.95
2022-11-30T08:00:46.958Z,6.84
2022-11-30T08:01:50.551Z,6.96
2022-11-30T08:02:54.725Z,6.84
2022-11-30T08:03:57.747Z,6.95
2022-11-30T08:05:00.288Z,6.77
2022-11-30T08:06:10.456Z,7.01
2022-11-30T08:07:12.493Z,6.94
2022-11-30T08:08:14.299Z,6.94
2022-11-30T08:09:20.961Z,6.82
2022-11-30T08:10:24.377Z,7.03
2022-11-30T08:11:29.814Z,7.06
2022-11-30T08:12:31.792Z,7.05
2022-11-30T08:13:34.373Z,7.03
2022-11-30T08:14:56.447Z,7.17
2022-11-30T08:16:26.438Z,7.28
2022-11-30T08:17:28.983Z,7.29
2022-11-30T08:18:31.607Z,7.30
2022-11-30T08:19:35.169Z,7.25
2022-11-30T08:20:38.082Z,7.33
2022-11-30T08:21:40.917Z,7.39
2022-11-30T08:22:43.269Z,7.36
2022-11-30T08:23:48.746Z,7.39
2022-11-30T08:24:51.678Z,7.35
2022-11-30T08:25:54.137Z,7.40
2022-11-30T08:26:55.806Z,7.48
2022-11-30T08:27:57.609Z,7.48
2022-11-30T08:29:02.050Z,7.54
2022-11-30T08:30:08.378Z,7.39
2022-11-30T08:31:35.873Z,7.51
2022-11-30T08:32:38.483Z,7.45
2022-11-30T08:33:41.281Z,7.40
2022-11-30T08:34:44.407Z,7.49
2022-11-30T08:35:49.208Z,7.47
2022-11-30T08:36:52.352Z,7.43
2022-11-30T08:37:54.400Z,7.46
2022-11-30T08:38:59.846Z,7.36
2022-11-30T08:40:02.457Z,7.48
2022-11-30T08:41:06.715Z,7.53
2022-11-30T08:42:11.142Z,7.59
2022-11-30T08:43:14.235Z,7.61
2022-11-30T08:44:16.706Z,7.65
2022-11-30T08:45:18.345Z,7.68
2022-11-30T08:47:46.557Z,7.75
2022-11-30T08:48:49.917Z,7.71
2022-11-30T08:49:56.779Z,7.68
2022-11-30T08:51:05.178Z,7.65
2022-11-30T08:52:17.037Z,7.62
2022-11-30T08:53:21.583Z,7.60
2022-11-30T08:54:26.421Z,7.58
2022-11-30T08:55:28.521Z,7.67
2022-11-30T08:56:30.492Z,7.77
2022-11-30T08:57:33.501Z,7.74
2022-11-30T08:58:37.752Z,7.83
2022-11-30T08:59:41.189Z,8.04
2022-11-30T09:00:43.431Z,8.13
2022-11-30T09:02:00.214Z,8.14
2022-11-30T09:03:03.168Z,8.16
2022-11-30T09:04:05.297Z,7.92
2022-11-30T09:05:08.578Z,8.06
2022-11-30T09:06:13.396Z,8.04
2022-11-30T09:07:15.444Z,8.03
2022-11-30T09:08:17.399Z,7.98
2022-11-30T09:09:20.437Z,7.92
2022-11-30T09:10:22.187Z,7.93
2022-11-30T09:11:41.650Z,8.02
2022-11-30T09:12:47.094Z,7.92
2022-11-30T09:13:51.177Z,7.83
2022-11-30T09:14:57.970Z,7.74
2022-11-30T09:16:00.707Z,7.89
2022-11-30T09:17:04.233Z,7.83
2022-11-30T09:18:09.533Z,7.70
2022-11-30T09:19:14.240Z,7.80
2022-11-30T09:20:16.706Z,7.89
2022-11-30T09:21:22.911Z,7.88
2022-11-30T09:22:28.443Z,8.05
2022-11-30T09:23:32.031Z,7.98
2022-11-30T09:24:33.760Z,8.10
2022-11-30T09:25:35.429Z,8.03
2022-11-30T09:26:38.203Z,8.04
2022-11-30T09:27:41.366Z,8.07
2022-11-30T09:28:43.865Z,8.06
2022-11-30T09:29:46.507Z,8.09
2022-11-30T09:30:48.659Z,8.13
2022-11-30T09:31:50.704Z,8.14
2022-11-30T09:32:52.396Z,8.03
2022-11-30T09:33:56.999Z,7.99
2022-11-30T09:34:59.439Z,8.00
2022-11-30T09:36:04.526Z,8.01
2022-11-30T09:37:06.477Z,7.95
2022-11-30T09:38:08.686Z,8.03
2022-11-30T09:39:13.130Z,8.18
2022-11-30T09:40:17.765Z,8.10
2022-11-30T09:41:29.018Z,8.07
2022-11-30T09:42:59.124Z,8.14
2022-11-30T09:44:12.176Z,8.16
2022-11-30T09:45:23.072Z,8.07
2022-11-30T09:46:31.983Z,8.07
2022-11-30T09:48:06.213Z,8.16
2022-11-30T09:49:19.634Z,8.14
2022-11-30T09:50:25.146Z,7.99
2022-11-30T09:51:35.771Z,8.04
2022-11-30T09:52:42.333Z,8.02
2022-11-30T09:53:49.412Z,8.04
2022-11-30T09:54:53.803Z,8.10
2022-11-30T09:55:58.146Z,8.08
2022-11-30T09:57:01.753Z,8.08
2022-11-30T09:58:06.477Z,8.14
2022-11-30T09:59:30.464Z,8.16
2022-11-30T10:00:35.547Z,8.05
2022-11-30T10:01:39.562Z,8.06
2022-11-30T10:02:44.914Z,8.18
2022-11-30T10:03:48.810Z,8.16
2022-11-30T10:04:51.449Z,8.15
2022-11-30T10:06:03.825Z,8.13
2022-11-30T10:07:10.858Z,8.13
2022-11-30T10:08:32.379Z,8.15
2022-11-30T10:09:40.200Z,8.14
2022-11-30T10:11:19.252Z,8.12
2022-11-30T10:12:31.423Z,8.15
2022-11-30T10:14:09.766Z,8.08
2022-11-30T10:15:43.093Z,8.24
2022-11-30T10:16:45.601Z,8.34
2022-11-30T10:17:55.451Z,8.33
2022-11-30T10:19:31.673Z,8.43
2022-11-30T10:21:02.831Z,8.54
2022-11-30T10:22:27.723Z,8.42
2022-11-30T10:24:10.819Z,8.36
2022-11-30T10:25:29.558Z,8.29
2022-11-30T10:26:39.599Z,8.26
2022-11-30T10:27:52.153Z,8.27
2022-11-30T10:29:00.847Z,8.21
2022-11-30T10:30:02.759Z,8.30
2022-11-30T10:31:05.715Z,8.28
2022-11-30T10:32:22.223Z,8.17
2022-11-30T10:33:35.309Z,8.32
2022-11-30T10:34:41.991Z,8.44
2022-11-30T10:35:50.790Z,8.41
2022-11-30T10:36:54.946Z,8.40
2022-11-30T10:38:00.644Z,8.71
2022-11-30T10:39:11.809Z,8.77
2022-11-30T10:40:38.408Z,8.86
2022-11-30T10:42:00.279Z,8.99
2022-11-30T10:43:17.126Z,9.12
2022-11-30T10:44:24.690Z,9.15
2022-11-30T10:45:29.305Z,9.06
2022-11-30T10:46:42.560Z,9.14
2022-11-30T10:47:58.983Z,9.14
2022-11-30T10:49:10.728Z,9.37
2022-11-30T10:50:15.853Z,9.34
2022-11-30T10:51:19.911Z,9.31
2022-11-30T10:52:49.410Z,9.31
2022-11-30T10:53:51.212Z,9.29
2022-11-30T10:55:00.575Z,9.31
2022-11-30T10:56:08.847Z,9.60
2022-11-30T10:57:10.934Z,9.76
2022-11-30T10:58:21.390Z,9.87
2022-11-30T10:59:25.802Z,10.12
2022-11-30T11:00:28.579Z,10.17
2022-11-30T11:01:41.073Z,10.46
2022-11-30T11:02:46.162Z,10.56
2022-11-30T11:03:48.071Z,10.63
2022-11-30T11:05:18.967Z,10.46
2022-11-30T11:06:25.447Z,10.02
2022-11-30T11:07:30.845Z,10.10
2022-11-30T11:08:33.524Z,10.56
2022-11-30T11:09:52.850Z,10.32
2022-11-30T11:10:55.870Z,10.22
2022-11-30T11:12:04.627Z,10.29
2022-11-30T11:13:16.866Z,10.34
2022-11-30T11:14:21.994Z,10.40
2022-11-30T11:15:29.827Z,10.59
2022-11-30T11:16:50.405Z,10.38
2022-11-30T11:17:53.076Z,10.34
2022-11-30T11:18:59.062Z,10.46
2022-11-30T11:20:01.174Z,10.57
2022-11-30T11:21:15.833Z,10.61
2022-11-30T11:22:27.181Z,10.33
2022-11-30T11:23:45.852Z,10.43
2022-11-30T11:24:50.870Z,10.22
2022-11-30T11:25:53.395Z,10.21
2022-11-30T11:26:57.392Z,10.12
2022-11-30T11:28:11.973Z,10.06
2022-11-30T11:29:31.750Z,9.97
2022-11-30T11:30:36.251Z,9.99
2022-11-30T11:31:44.488Z,10.18
2022-11-30T11:33:19.761Z,10.33
2022-11-30T11:34:38.036Z,10.07
2022-11-30T11:35:47.512Z,10.05
2022-11-30T11:37:26.551Z,9.97
2022-11-30T11:38:46.654Z,10.06
2022-11-30T11:40:17.605Z,10.26
2022-11-30T11:41:29.345Z,10.27
2022-11-30T11:42:37.286Z,10.23
2022-11-30T11:44:04.669Z,10.11
2022-11-30T11:45:15.428Z,9.88
2022-11-30T11:46:17.491Z,10.08
2022-11-30T11:47:38.401Z,9.82
2022-11-30T11:48:46.160Z,9.93
2022-11-30T11:49:51.002Z,9.79
2022-11-30T11:51:08.879Z,9.86
2022-11-30T11:52:11.372Z,10.02
2022-11-30T11:53:26.117Z,9.99
2022-11-30T11:54:33.632Z,9.94
2022-11-30T11:55:36.824Z,9.85
2022-11-30T11:56:38.864Z,9.91
2022-11-30T11:57:51.334Z,9.92
2022-11-30T11:59:00.837Z,9.94
2022-11-30T12:00:16.425Z,9.87
2022-11-30T12:01:59.172Z,9.95
2022-11-30T12:03:04.254Z,9.99
2022-11-30T12:04:17.209Z,9.92
2022-11-30T12:05:32.839Z,9.97
2022-11-30T12:06:37.389Z,9.93
2022-11-30T12:07:50.663Z,10.11
2022-11-30T12:09:01.376Z,10.24
2022-11-30T12:11:57.309Z,10.35
2022-11-30T12:12:59.888Z,10.46
2022-11-30T12:14:05.711Z,10.44
2022-11-30T12:15:15.117Z,10.43
2022-11-30T12:16:24.510Z,10.51
2022-11-30T12:17:58.967Z,10.54
2022-11-30T12:19:23.283Z,10.62
2022-11-30T12:20:46.521Z,10.67
2022-11-30T12:22:16.433Z,10.50
2022-11-30T12:23:42.778Z,10.49
2022-11-30T12:25:18.001Z,10.48
2022-11-30T12:26:22.430Z,10.41
2022-11-30T12:27:52.084Z,10.42
2022-11-30T12:29:22.788Z,10.37
2022-11-30T12:30:32.441Z,10.37
2022-11-30T12:31:56.921Z,10.29
2022-11-30T12:33:07.748Z,10.19
2022-11-30T12:34:28.605Z,10.19
2022-11-30T12:36:13.093Z,10.20
2022-11-30T12:37:50.323Z,10.16
2022-11-30T12:39:01.173Z,10.09
2022-11-30T12:40:21.161Z,10.11
2022-11-30T12:41:39.991Z,10.09
2022-11-30T12:42:52.311Z,10.08
2022-11-30T12:44:10.810Z,10.02
2022-11-30T12:45:12.680Z,10.00
2022-11-30T12:46:44.113Z,9.97
2022-11-30T12:48:11.281Z,9.89
2022-11-30T12:49:42.381Z,9.98
2022-11-30T12:50:56.009Z,9.81
2022-11-30T12:52:20.210Z,9.92
2022-11-30T12:53:31.083Z,9.98
2022-11-30T12:55:00.375Z,10.01
2022-11-30T12:56:54.676Z,9.97
2022-11-30T12:58:03.027Z,9.93
2022-11-30T12:59:39.731Z,9.95
2022-11-30T13:01:06.312Z,9.93
2022-11-30T13:02:10.890Z,10.01
2022-11-30T13:03:46.889Z,9.99
2022-11-30T13:04:58.934Z,9.94
2022-11-30T13:06:07.981Z,10.02
2022-11-30T13:07:31.781Z,10.00
2022-11-30T13:08:48.031Z,10.07
2022-11-30T13:09:55.816Z,10.00
2022-11-30T13:11:08.838Z,10.04
2022-11-30T13:12:18.131Z,9.97
2022-11-30T13:13:26.114Z,9.93
2022-11-30T13:14:30.487Z,9.88
2022-11-30T13:15:37.254Z,9.80
2022-11-30T13:16:41.427Z,9.81
2022-11-30T13:17:44.945Z,9.74
2022-11-30T13:18:51.802Z,9.65
2022-11-30T13:20:18.879Z,9.69
2022-11-30T13:21:34.150Z,9.61
2022-11-30T13:22:48.227Z,9.62
2022-11-30T13:24:10.996Z,9.51
2022-11-30T13:27:07.355Z,9.61
2022-11-30T13:28:24.164Z,9.59
2022-11-30T13:29:50.831Z,9.61
2022-11-30T13:31:18.158Z,9.61
2022-11-30T13:32:56.134Z,9.61
2022-11-30T13:33:56.907Z,9.67
2022-11-30T13:35:29.603Z,9.64
2022-11-30T13:36:39.265Z,9.71
2022-11-30T13:37:41.379Z,9.74
2022-11-30T13:38:45.205Z,9.70
2022-11-30T13:39:51.015Z,9.71
2022-11-30T13:41:01.418Z,9.71
2022-11-30T13:42:07.420Z,9.75
2022-11-30T13:43:21.785Z,9.75
2022-11-30T13:44:39.303Z,9.86
2022-11-30T13:45:41.157Z,9.73
2022-11-30T13:46:50.489Z,9.72
2022-11-30T13:47:56.265Z,9.80
2022-11-30T13:49:16.905Z,9.90
2022-11-30T13:50:29.272Z,9.92
2022-11-30T13:51:36.820Z,9.91
2022-11-30T13:53:06.609Z,9.81
2022-11-30T13:54:43.787Z,9.76
2022-11-30T13:55:50.844Z,9.76
2022-11-30T13:56:52.717Z,9.67
2022-11-30T13:58:06.245Z,9.61
2022-11-30T13:59:23.667Z,9.61
2022-11-30T14:00:31.454Z,9.54
2022-11-30T14:01:44.806Z,9.45
2022-11-30T14:02:47.841Z,9.39
2022-11-30T14:04:29.432Z,9.39
2022-11-30T14:06:28.908Z,9.38
2022-11-30T14:07:38.869Z,9.34
2022-11-30T14:08:41.140Z,9.27
2022-11-30T14:09:43.056Z,9.24
2022-11-30T14:10:47.180Z,9.18
2022-11-30T14:11:50.525Z,9.17
2022-11-30T14:13:22.862Z,9.10
2022-11-30T14:14:46.567Z,9.06
2022-11-30T14:15:49.351Z,9.03
2022-11-30T14:16:51.328Z,8.86
2022-11-30T14:17:57.732Z,8.93
2022-11-30T14:19:00.951Z,8.85
2022-11-30T14:20:15.018Z,8.94
2022-11-30T14:21:28.666Z,8.95
2022-11-30T14:22:31.567Z,8.91
2022-11-30T14:23:39.785Z,8.92
2022-11-30T14:24:48.071Z,8.76
2022-11-30T14:25:54.093Z,8.84
2022-11-30T14:26:56.255Z,8.81
2022-11-30T14:27:58.436Z,8.75
2022-11-30T14:29:00.868Z,8.80
2022-11-30T14:30:07.335Z,8.77
2022-11-30T14:31:16.564Z,8.71
2022-11-30T14:32:42.969Z,8.69
2022-11-30T14:34:18.646Z,8.74
2022-11-30T14:35:21.140Z,8.72
2022-11-30T14:36:27.754Z,8.75
2022-11-30T14:37:35.474Z,8.75
2022-11-30T14:38:44.372Z,8.69
2022-11-30T14:39:47.422Z,8.67
2022-11-30T14:40:58.429Z,8.64
2022-11-30T14:42:01.718Z,8.64
2022-11-30T14:43:09.214Z,8.54
2022-11-30T14:44:17.521Z,8.63
2022-11-30T14:45:27.399Z,8.47
2022-11-30T14:46:30.724Z,8.56
2022-11-30T14:47:34.789Z,8.60
2022-11-30T14:48:36.810Z,8.52
2022-11-30T14:49:46.506Z,8.56
2022-11-30T14:50:56.827Z,8.59
2022-11-30T14:52:04.589Z,8.49
2022-11-30T14:53:14.010Z,8.41
2022-11-30T14:54:43.080Z,8.45
2022-11-30T14:56:01.527Z,8.48
2022-11-30T14:57:41.457Z,8.42
2022-11-30T14:58:53.516Z,8.40
2022-11-30T15:00:08.590Z,8.33
2022-11-30T15:01:22.752Z,8.38
2022-11-30T15:02:40.937Z,8.44
2022-11-30T15:03:43.121Z,8.28